Mission Field
KLVM : now visible

Airfield :











YOU CAN JOIN US ON...

 
LOGIN :

Register | Disclaimer

   EN    FR    IT 

 









Legend :    VFR   Marginal VFR   IFR   Intensive IFR   Very Intensive IFR
Visi :
Ceiling :
>= 8 km
>= 3000ft
5 to 8 km
1000 to 3000 ft
1500m to 5 km
500 to 1000 ft
800 to 1500m
200 to 500 ft
< 800m
< 200 ft
Symbols :   Thunderstorms  Fog  Heavy snow  Heavy precipitations  Wind > 20 kt






- Airport Elevation : 4660 ft


KLVM - Mission Field

CURRENT METAR :
  • 241053Z AUTO 09009KT 1/2SM SN FZFG VV006 M07/M08 A2989 RMK AO2 SLP178 P0004 T10671083

EXPIRED METARs :
  • 241032Z AUTO 09009KT 1/2SM SN FZFG VV006 M07/M09 A2989 RMK AO2 P0002 T10671089
  • 241020Z AUTO 09011KT 1/2SM SN FZFG VV008 M07/M09 A2989 RMK AO2 P0001 T10671089
  • 240953Z AUTO 10011KT 3/4SM -SN BR VV012 M07/M08 A2988 RMK AO2 SLP175 P0005 T10671083
  • 240938Z AUTO 10011KT 1SM -SN BR VV011 M07/M08 A2988 RMK AO2 P0004 T10671083
  • 240910Z AUTO 10010KT 3/4SM -SN BR VV008 M07/M08 A2987 RMK AO2 P0001 T10671083
  • 240902Z AUTO 10010KT 3/4SM -SN BR VV010 M07/M08 A2986 RMK AO2 P0001 T10671083
  • 240853Z AUTO 10009KT 3/4SM -SN BR VV009 M07/M08 A2986 RMK AO2 SLP167 P0004 60010 T10671083 55005
  • 240825Z AUTO 09010KT 3/4SM -SN BR VV009 M07/M08 A2986 RMK AO2 P0003 T10671083

TAF KLVM
Valid from the 24 at 06:00 until the 25 at 06:00 UTC


240534Z 2406/2506 09010G20KT 1/2SM SN FG BKN007 OVC012
FM242300 06008KT 1 1/2SM -SN BR OVC015
KZLC FIR / North America



MET'MAP, your aeronautical weather chart ! - Copyright ORBIFLY December 2007 - Disclaimer

ORBIFLY MET'MAP TEAM :

Programming & Development : Alexandra Zaïnal
Concept & original design : Baudouin d'Aumeries
Assistance for programming : Marc-Olivier Méhu
Technical & hardware support : Manuel Goepfert

Contact : metmap@orbifly.com




SOURCES & CREDITS :

   NOAA       Earth
Advisory